createdAt,value
2023-02-22T00:00:43.141Z,21.10
2023-02-22T00:03:15.465Z,21.07
2023-02-22T00:05:46.958Z,21.06
2023-02-22T00:08:13.836Z,21.05
2023-02-22T00:10:40.332Z,21.03
2023-02-22T00:13:07.588Z,21.01
2023-02-22T00:15:36.305Z,20.99
2023-02-22T00:18:02.787Z,20.97
2023-02-22T00:20:31.391Z,20.96
2023-02-22T00:22:57.853Z,20.94
2023-02-22T00:25:24.557Z,20.95
2023-02-22T00:27:54.060Z,20.92
2023-02-22T00:30:21.647Z,20.90
2023-02-22T00:32:48.314Z,20.89
2023-02-22T00:35:15.433Z,20.89
2023-02-22T00:37:41.995Z,20.87
2023-02-22T00:40:09.541Z,20.86
2023-02-22T00:42:35.965Z,20.85
2023-02-22T00:45:03.375Z,20.83
2023-02-22T00:47:30.303Z,20.82
2023-02-22T00:49:56.856Z,20.80
2023-02-22T00:52:23.281Z,20.80
2023-02-22T00:54:49.670Z,20.78
2023-02-22T00:57:18.471Z,20.78
2023-02-22T00:59:44.924Z,20.77
2023-02-22T01:02:11.389Z,20.75
2023-02-22T01:04:38.156Z,20.76
2023-02-22T01:07:04.638Z,20.75
2023-02-22T01:09:31.035Z,20.75
2023-02-22T01:11:57.467Z,20.74
2023-02-22T01:14:25.393Z,20.72
2023-02-22T01:16:52.254Z,20.69
2023-02-22T01:19:18.687Z,20.68
2023-02-22T01:21:45.152Z,20.68
2023-02-22T01:24:16.245Z,20.69
2023-02-22T01:26:43.373Z,20.66
2023-02-22T01:29:15.181Z,20.67
2023-02-22T01:31:44.148Z,20.66
2023-02-22T01:34:10.885Z,20.64
2023-02-22T01:36:37.310Z,20.64
2023-02-22T01:39:06.133Z,20.63
2023-02-22T01:41:32.631Z,20.63
2023-02-22T01:43:59.015Z,20.64
2023-02-22T01:46:26.166Z,20.63
2023-02-22T01:48:52.673Z,20.62
2023-02-22T01:51:37.846Z,20.61
2023-02-22T01:54:06.464Z,20.59
2023-02-22T01:56:33.105Z,20.60
2023-02-22T01:59:01.093Z,20.59
2023-02-22T02:01:27.713Z,20.58
2023-02-22T02:03:58.146Z,20.59
2023-02-22T02:06:24.637Z,20.56
2023-02-22T02:08:55.519Z,20.56
2023-02-22T02:11:22.596Z,20.56
2023-02-22T02:13:55.869Z,20.55
2023-02-22T02:16:26.114Z,20.55
2023-02-22T02:18:52.616Z,20.54
2023-02-22T02:21:26.613Z,20.52
2023-02-22T02:23:55.820Z,20.51
2023-02-22T02:26:41.162Z,20.50
2023-02-22T02:29:30.905Z,20.50
2023-02-22T02:32:03.661Z,20.47
2023-02-22T02:34:30.214Z,20.48
2023-02-22T02:37:05.748Z,20.48
2023-02-22T02:39:36.378Z,20.46
2023-02-22T02:42:04.128Z,20.47
2023-02-22T02:44:36.373Z,20.46
2023-02-22T02:47:03.849Z,20.45
2023-02-22T02:49:31.873Z,20.45
2023-02-22T02:51:58.293Z,20.44
2023-02-22T02:54:24.758Z,20.44
2023-02-22T02:56:51.249Z,20.43
2023-02-22T02:59:31.119Z,20.43
2023-02-22T03:02:11.602Z,20.43
2023-02-22T03:04:40.822Z,20.42
2023-02-22T03:07:10.322Z,20.40
2023-02-22T03:09:42.884Z,20.41
2023-02-22T03:12:15.386Z,20.40
2023-02-22T03:14:44.978Z,20.38
2023-02-22T03:17:16.270Z,20.39
2023-02-22T03:19:47.296Z,20.39
2023-02-22T03:22:18.973Z,20.38
2023-02-22T03:24:53.175Z,20.38
2023-02-22T03:27:22.377Z,20.39
2023-02-22T03:29:50.412Z,20.36
2023-02-22T03:32:18.361Z,20.35
2023-02-22T03:34:53.346Z,20.35
2023-02-22T03:37:24.162Z,20.36
2023-02-22T03:39:51.125Z,20.34
2023-02-22T03:42:18.636Z,20.33
2023-02-22T03:44:45.177Z,20.40
2023-02-22T03:47:14.448Z,20.58
2023-02-22T03:49:43.280Z,20.76
2023-02-22T03:52:09.816Z,20.94
2023-02-22T03:54:36.265Z,21.12
2023-02-22T03:57:10.779Z,21.27
2023-02-22T03:59:37.189Z,21.43
2023-02-22T04:02:03.624Z,21.65
2023-02-22T04:04:30.091Z,21.88
2023-02-22T04:06:56.614Z,22.06
2023-02-22T04:09:23.071Z,22.21
2023-02-22T04:11:49.684Z,22.35
2023-02-22T04:14:16.134Z,22.47
2023-02-22T04:16:42.541Z,22.56
2023-02-22T04:19:08.978Z,22.64
2023-02-22T04:21:35.469Z,22.71
2023-02-22T04:24:01.882Z,22.77
2023-02-22T04:26:28.304Z,22.82
2023-02-22T04:28:54.699Z,22.87
2023-02-22T04:31:21.243Z,22.91
2023-02-22T04:33:47.785Z,22.95
2023-02-22T04:36:16.089Z,22.98
2023-02-22T04:38:42.972Z,23.00
2023-02-22T04:41:09.361Z,23.01
2023-02-22T04:43:35.799Z,23.05
2023-02-22T04:46:02.223Z,23.06
2023-02-22T04:48:28.650Z,23.08
2023-02-22T04:50:55.184Z,23.10
2023-02-22T04:53:21.708Z,23.10
2023-02-22T04:55:48.248Z,23.12
2023-02-22T04:58:14.627Z,23.13
2023-02-22T05:00:41.079Z,23.15
2023-02-22T05:03:07.546Z,23.17
2023-02-22T05:05:33.976Z,23.18
2023-02-22T05:08:00.462Z,23.20
2023-02-22T05:10:27.060Z,23.20
2023-02-22T05:12:53.556Z,23.21
2023-02-22T05:15:21.138Z,23.23
2023-02-22T05:17:47.657Z,23.23
2023-02-22T05:20:19.771Z,23.25
2023-02-22T05:22:46.307Z,23.26
2023-02-22T05:25:12.745Z,23.28
2023-02-22T05:27:39.264Z,23.31
2023-02-22T05:30:09.206Z,23.36
2023-02-22T05:32:35.677Z,23.39
2023-02-22T05:35:02.088Z,23.41
2023-02-22T05:37:28.622Z,23.44
2023-02-22T05:39:55.735Z,23.47
2023-02-22T05:42:23.460Z,23.50
2023-02-22T05:44:49.889Z,23.52
2023-02-22T05:47:16.352Z,23.57
2023-02-22T05:49:42.780Z,23.60
2023-02-22T05:52:09.191Z,23.61
2023-02-22T05:54:35.628Z,23.56
2023-02-22T05:57:02.503Z,23.48
2023-02-22T05:59:30.270Z,23.40
2023-02-22T06:01:56.736Z,23.29
2023-02-22T06:04:23.323Z,23.19
2023-02-22T06:06:49.837Z,23.11
2023-02-22T06:09:18.814Z,23.05
2023-02-22T06:11:45.298Z,22.98
2023-02-22T06:14:11.708Z,22.93
2023-02-22T06:16:38.163Z,22.90
2023-02-22T06:19:04.679Z,22.90
2023-02-22T06:21:31.141Z,22.94
2023-02-22T06:23:57.590Z,22.91
2023-02-22T06:26:24.052Z,22.84
2023-02-22T06:28:50.440Z,22.69
2023-02-22T06:31:17.185Z,22.50
2023-02-22T06:33:43.795Z,22.37
2023-02-22T06:36:10.587Z,22.19
2023-02-22T06:38:37.016Z,22.01
2023-02-22T06:41:03.472Z,21.86
2023-02-22T06:43:29.977Z,21.73
2023-02-22T06:45:56.443Z,21.58
2023-02-22T06:48:22.947Z,21.44
2023-02-22T06:50:49.365Z,21.31
2023-02-22T06:53:15.778Z,21.26
2023-02-22T06:55:42.218Z,21.28
2023-02-22T06:58:08.720Z,21.31
2023-02-22T07:00:35.228Z,21.31
2023-02-22T07:03:01.936Z,21.32
2023-02-22T07:05:28.860Z,21.31
2023-02-22T07:07:55.826Z,21.31
2023-02-22T07:10:22.317Z,21.46
2023-02-22T07:12:49.145Z,21.61
2023-02-22T07:15:18.145Z,21.79
2023-02-22T07:17:44.717Z,21.97
2023-02-22T07:20:11.667Z,22.19
2023-02-22T07:22:39.433Z,22.35
2023-02-22T07:25:06.636Z,22.47
2023-02-22T07:27:33.026Z,22.58
2023-02-22T07:29:59.451Z,22.64
2023-02-22T07:32:26.005Z,22.67
2023-02-22T07:34:52.488Z,22.72
2023-02-22T07:37:19.048Z,22.75
2023-02-22T07:39:48.922Z,22.78
2023-02-22T07:42:15.356Z,22.83
2023-02-22T07:44:41.808Z,22.88
2023-02-22T07:47:09.022Z,22.93
2023-02-22T07:49:35.538Z,22.93
2023-02-22T07:52:01.995Z,22.96
2023-02-22T07:54:28.508Z,23.02
2023-02-22T07:56:54.927Z,23.03
2023-02-22T07:59:21.854Z,23.09
2023-02-22T08:01:49.924Z,23.17
2023-02-22T08:04:16.372Z,23.24
2023-02-22T08:06:46.323Z,23.31
2023-02-22T08:09:12.851Z,23.38
2023-02-22T08:11:39.289Z,23.41
2023-02-22T08:14:05.735Z,23.39
2023-02-22T08:16:32.289Z,23.37
2023-02-22T08:18:58.805Z,23.29
2023-02-22T08:21:25.257Z,23.23
2023-02-22T08:23:54.375Z,23.23
2023-02-22T08:26:20.940Z,23.27
2023-02-22T08:28:49.788Z,23.31
2023-02-22T08:31:16.751Z,23.35
2023-02-22T08:33:43.578Z,23.35
2023-02-22T08:36:10.098Z,23.31
2023-02-22T08:38:37.747Z,23.31
2023-02-22T08:41:04.467Z,23.32
2023-02-22T08:43:30.879Z,23.28
2023-02-22T08:45:57.965Z,23.19
2023-02-22T08:48:24.584Z,23.15
2023-02-22T08:50:51.047Z,23.11
2023-02-22T08:53:17.556Z,23.16
2023-02-22T08:55:44.169Z,23.27
2023-02-22T08:58:10.710Z,23.43
2023-02-22T09:00:38.811Z,23.56
2023-02-22T09:03:06.480Z,23.65
2023-02-22T09:05:33.070Z,23.69
2023-02-22T09:07:59.846Z,23.72
2023-02-22T09:10:27.070Z,23.72
2023-02-22T09:12:55.488Z,23.74
2023-02-22T09:15:22.248Z,23.79
2023-02-22T09:17:48.661Z,23.82
2023-02-22T09:20:17.881Z,23.83
2023-02-22T09:22:47.338Z,23.86
2023-02-22T09:25:17.134Z,23.86
2023-02-22T09:27:44.205Z,23.86
2023-02-22T09:30:33.368Z,23.88
2023-02-22T09:33:01.474Z,23.88
2023-02-22T09:35:28.217Z,23.90
2023-02-22T09:37:55.419Z,23.96
2023-02-22T09:40:30.848Z,23.93
2023-02-22T09:42:57.320Z,23.95
2023-02-22T09:45:24.368Z,23.98
2023-02-22T09:47:56.467Z,23.99
2023-02-22T09:50:28.157Z,23.99
2023-02-22T09:53:05.039Z,24.00
2023-02-22T09:55:34.685Z,24.02
2023-02-22T09:58:08.825Z,24.03
2023-02-22T10:00:36.546Z,24.04
2023-02-22T10:03:21.011Z,23.98
2023-02-22T10:06:04.335Z,23.89
2023-02-22T10:08:33.369Z,23.75
2023-02-22T10:11:20.072Z,23.58
2023-02-22T10:13:46.563Z,23.48
2023-02-22T10:16:22.072Z,23.43
2023-02-22T10:19:08.321Z,23.40
2023-02-22T10:21:50.287Z,23.33
2023-02-22T10:24:20.337Z,23.28
2023-02-22T10:26:47.900Z,23.20
2023-02-22T10:29:28.796Z,23.21
2023-02-22T10:31:58.833Z,23.18
2023-02-22T10:34:26.330Z,23.18
2023-02-22T10:36:57.917Z,23.12
2023-02-22T10:39:28.389Z,23.09
2023-02-22T10:42:05.752Z,23.09
2023-02-22T10:44:35.641Z,23.16
2023-02-22T10:47:03.126Z,23.19
2023-02-22T10:49:32.044Z,23.22
2023-02-22T10:52:01.063Z,23.32
2023-02-22T10:54:34.181Z,23.41
2023-02-22T10:57:00.859Z,23.46
2023-02-22T10:59:40.516Z,23.51
2023-02-22T11:02:16.360Z,23.58
2023-02-22T11:04:49.891Z,23.60
2023-02-22T11:07:27.243Z,23.60
2023-02-22T11:10:11.995Z,23.57
2023-02-22T11:12:39.482Z,23.57
2023-02-22T11:15:35.462Z,23.61
2023-02-22T11:18:02.032Z,23.67
2023-02-22T11:20:34.849Z,23.68
2023-02-22T11:23:02.285Z,23.70
2023-02-22T11:25:30.195Z,23.78
2023-02-22T11:27:59.941Z,23.79
2023-02-22T11:30:26.746Z,23.77
2023-02-22T11:32:53.161Z,23.71
2023-02-22T11:35:20.956Z,23.68
2023-02-22T11:37:47.392Z,23.59
2023-02-22T11:40:19.593Z,23.54
2023-02-22T11:42:46.552Z,23.54
2023-02-22T11:45:17.225Z,23.52
2023-02-22T11:47:47.685Z,23.54
2023-02-22T11:50:18.996Z,23.59
2023-02-22T11:52:45.972Z,23.61
2023-02-22T11:55:32.720Z,23.67
2023-02-22T11:58:08.451Z,23.71
2023-02-22T12:00:44.177Z,23.76
2023-02-22T12:03:10.752Z,23.75
2023-02-22T12:06:02.062Z,23.75
2023-02-22T12:08:41.157Z,23.74
2023-02-22T12:11:13.644Z,23.78
2023-02-22T12:13:47.155Z,23.81
2023-02-22T12:16:17.410Z,23.80
2023-02-22T12:18:46.860Z,23.76
2023-02-22T12:21:16.768Z,23.74
2023-02-22T12:23:45.004Z,23.76
2023-02-22T12:26:14.600Z,23.72
2023-02-22T12:28:43.623Z,23.69
2023-02-22T12:31:20.184Z,23.70
2023-02-22T12:33:49.697Z,23.72
2023-02-22T12:36:16.782Z,23.79
2023-02-22T12:38:44.442Z,23.82
2023-02-22T12:41:29.835Z,23.81
2023-02-22T12:44:06.932Z,23.81
2023-02-22T12:46:37.857Z,23.81
2023-02-22T12:49:07.486Z,23.78
2023-02-22T12:51:54.566Z,23.74
2023-02-22T12:54:21.114Z,23.72
2023-02-22T12:56:53.587Z,23.76
2023-02-22T12:59:32.879Z,23.78
2023-02-22T13:02:25.618Z,23.79
2023-02-22T13:04:52.105Z,23.79
2023-02-22T13:07:24.910Z,23.79
2023-02-22T13:09:51.314Z,23.76
2023-02-22T13:12:41.141Z,23.77
2023-02-22T13:15:26.260Z,23.77
2023-02-22T13:17:56.414Z,23.71
2023-02-22T13:20:27.562Z,23.60
2023-02-22T13:23:05.271Z,23.53
2023-02-22T13:25:41.320Z,23.46
2023-02-22T13:28:16.709Z,23.36
2023-02-22T13:30:49.823Z,23.28
2023-02-22T13:33:25.405Z,23.18
2023-02-22T13:36:07.364Z,23.13
2023-02-22T13:38:49.467Z,23.13
2023-02-22T13:41:27.785Z,23.12
2023-02-22T13:43:57.415Z,23.12
2023-02-22T13:46:23.903Z,23.15
2023-02-22T13:48:50.326Z,23.22
2023-02-22T13:51:35.486Z,23.31
2023-02-22T13:54:07.528Z,23.37
2023-02-22T13:56:33.960Z,23.45
2023-02-22T13:59:01.088Z,23.50
2023-02-22T14:01:38.983Z,23.58
2023-02-22T14:04:24.652Z,23.62
2023-02-22T14:06:51.282Z,23.66
2023-02-22T14:09:37.671Z,23.66
2023-02-22T14:12:04.131Z,23.64
2023-02-22T14:14:30.592Z,23.59
2023-02-22T14:17:16.122Z,23.55
2023-02-22T14:19:42.524Z,23.54
2023-02-22T14:22:13.021Z,23.50
2023-02-22T14:24:43.645Z,23.48
2023-02-22T14:27:10.142Z,23.44
2023-02-22T14:29:36.613Z,23.42
2023-02-22T14:32:06.561Z,23.40
2023-02-22T14:34:39.463Z,23.39
2023-02-22T14:37:10.036Z,23.38
2023-02-22T14:39:38.412Z,23.39
2023-02-22T14:42:13.655Z,23.46
2023-02-22T14:44:57.577Z,23.49
2023-02-22T14:47:29.493Z,23.49
2023-02-22T14:50:05.929Z,23.54
2023-02-22T14:52:33.134Z,23.52
2023-02-22T14:55:20.169Z,23.56
2023-02-22T14:58:01.349Z,23.54
2023-02-22T15:00:45.848Z,23.52
2023-02-22T15:03:33.453Z,23.54
2023-02-22T15:06:07.354Z,23.60
2023-02-22T15:08:34.674Z,23.64
2023-02-22T15:11:02.389Z,23.67
2023-02-22T15:13:32.913Z,23.69
2023-02-22T15:16:03.049Z,23.72
2023-02-22T15:18:32.742Z,23.75
2023-02-22T15:21:12.129Z,23.77
2023-02-22T15:23:43.637Z,23.79
2023-02-22T15:26:20.665Z,23.77
2023-02-22T15:28:47.317Z,23.79
2023-02-22T15:31:14.328Z,23.73
2023-02-22T15:33:40.784Z,23.63
2023-02-22T15:36:11.523Z,23.52
2023-02-22T15:38:39.406Z,23.49
2023-02-22T15:41:08.392Z,23.41
2023-02-22T15:43:34.880Z,23.36
2023-02-22T15:46:04.623Z,23.33
2023-02-22T15:48:33.222Z,23.32
2023-02-22T15:51:18.041Z,23.29
2023-02-22T15:53:45.496Z,23.27
2023-02-22T15:56:15.713Z,23.23
2023-02-22T15:58:42.472Z,23.23
2023-02-22T16:01:12.418Z,23.28
2023-02-22T16:03:44.880Z,23.38
2023-02-22T16:06:29.659Z,23.45
2023-02-22T16:08:56.611Z,23.54
2023-02-22T16:11:29.791Z,23.60
2023-02-22T16:13:57.839Z,23.66
2023-02-22T16:16:27.469Z,23.70
2023-02-22T16:18:54.629Z,23.73
2023-02-22T16:21:23.709Z,23.75
2023-02-22T16:23:55.980Z,23.77
2023-02-22T16:26:29.373Z,23.79
2023-02-22T16:29:02.560Z,23.81
2023-02-22T16:31:31.916Z,23.83
2023-02-22T16:33:58.610Z,23.83
2023-02-22T16:36:36.009Z,23.82
2023-02-22T16:39:02.465Z,23.79
2023-02-22T16:41:28.893Z,23.74
2023-02-22T16:43:55.377Z,23.72
2023-02-22T16:46:21.906Z,23.68
2023-02-22T16:48:48.396Z,23.63
2023-02-22T16:51:21.841Z,23.60
2023-02-22T16:53:48.939Z,23.55
2023-02-22T16:56:16.369Z,23.51
2023-02-22T16:58:42.981Z,23.45
2023-02-22T17:01:09.575Z,23.43
2023-02-22T17:03:36.079Z,23.43
2023-02-22T17:06:02.661Z,23.43
2023-02-22T17:08:29.124Z,23.44
2023-02-22T17:10:57.082Z,23.46
2023-02-22T17:13:26.831Z,23.52
2023-02-22T17:15:56.557Z,23.59
2023-02-22T17:18:23.335Z,23.64
2023-02-22T17:20:50.639Z,23.71
2023-02-22T17:23:17.154Z,23.76
2023-02-22T17:25:44.595Z,23.80
2023-02-22T17:28:11.153Z,23.84
2023-02-22T17:30:37.744Z,23.90
2023-02-22T17:33:05.251Z,23.94
2023-02-22T17:35:35.614Z,23.98
2023-02-22T17:38:06.212Z,24.02
2023-02-22T17:40:33.459Z,24.06
2023-02-22T17:43:00.619Z,24.07
2023-02-22T17:45:27.084Z,24.07
2023-02-22T17:47:53.630Z,24.07
2023-02-22T17:50:20.222Z,24.07
2023-02-22T17:52:46.802Z,24.07
2023-02-22T17:55:13.285Z,24.04
2023-02-22T17:57:44.036Z,24.05
2023-02-22T18:00:15.664Z,24.04
2023-02-22T18:02:42.980Z,24.03
2023-02-22T18:05:10.126Z,24.02
2023-02-22T18:07:36.590Z,24.01
2023-02-22T18:10:05.341Z,24.00
2023-02-22T18:12:32.371Z,23.99
2023-02-22T18:14:59.346Z,24.00
2023-02-22T18:17:25.918Z,23.99
2023-02-22T18:19:52.382Z,24.00
2023-02-22T18:22:19.151Z,24.00
2023-02-22T18:24:45.577Z,23.99
2023-02-22T18:27:12.006Z,23.99
2023-02-22T18:29:38.417Z,23.99
2023-02-22T18:32:08.110Z,23.99
2023-02-22T18:34:34.527Z,24.00
2023-02-22T18:37:01.118Z,24.00
2023-02-22T18:39:31.807Z,24.00
2023-02-22T18:41:58.305Z,23.99
2023-02-22T18:44:27.111Z,24.00
2023-02-22T18:46:54.032Z,24.00
2023-02-22T18:49:20.502Z,23.99
2023-02-22T18:51:46.896Z,23.99
2023-02-22T18:54:13.315Z,24.00
2023-02-22T18:56:40.345Z,24.00
2023-02-22T18:59:07.978Z,24.01
2023-02-22T19:01:40.780Z,24.01
2023-02-22T19:04:09.661Z,24.00
2023-02-22T19:06:36.470Z,24.02
2023-02-22T19:09:04.585Z,24.00
2023-02-22T19:11:31.003Z,24.01
2023-02-22T19:13:57.610Z,24.01
2023-02-22T19:16:24.476Z,24.00
2023-02-22T19:18:52.559Z,23.99
2023-02-22T19:21:19.553Z,24.01
2023-02-22T19:23:47.569Z,24.00
2023-02-22T19:26:14.573Z,24.01
2023-02-22T19:28:40.997Z,24.00
2023-02-22T19:31:18.546Z,24.01
2023-02-22T19:33:45.482Z,24.01
2023-02-22T19:36:11.996Z,24.02
2023-02-22T19:38:38.486Z,24.01
2023-02-22T19:41:12.472Z,24.02
2023-02-22T19:43:41.406Z,24.01
2023-02-22T19:46:07.902Z,24.04
2023-02-22T19:48:34.562Z,24.02
2023-02-22T19:51:08.018Z,24.01
2023-02-22T19:53:34.719Z,24.03
2023-02-22T19:56:04.256Z,24.03
2023-02-22T19:58:32.576Z,24.07
2023-02-22T20:00:59.104Z,24.10
2023-02-22T20:03:26.812Z,24.11
2023-02-22T20:05:56.521Z,24.09
2023-02-22T20:08:22.955Z,24.05
2023-02-22T20:10:49.449Z,24.01
2023-02-22T20:13:17.053Z,23.95
2023-02-22T20:15:43.568Z,23.90
2023-02-22T20:18:10.141Z,23.85
2023-02-22T20:20:38.583Z,23.78
2023-02-22T20:23:06.356Z,23.73
2023-02-22T20:25:35.361Z,23.67
2023-02-22T20:28:01.757Z,23.59
2023-02-22T20:30:28.157Z,23.55
2023-02-22T20:32:54.898Z,23.51
2023-02-22T20:35:21.641Z,23.45
2023-02-22T20:37:48.157Z,23.40
2023-02-22T20:40:14.621Z,23.36
2023-02-22T20:42:41.119Z,23.31
2023-02-22T20:45:09.743Z,23.26
2023-02-22T20:47:37.252Z,23.23
2023-02-22T20:50:05.626Z,23.20
2023-02-22T20:52:32.057Z,23.15
2023-02-22T20:54:58.524Z,23.11
2023-02-22T20:57:24.965Z,23.09
2023-02-22T20:59:51.382Z,23.04
2023-02-22T21:02:17.815Z,23.00
2023-02-22T21:04:44.323Z,22.98
2023-02-22T21:07:10.804Z,22.94
2023-02-22T21:09:38.290Z,22.91
2023-02-22T21:12:10.376Z,22.88
2023-02-22T21:14:37.553Z,22.85
2023-02-22T21:17:04.612Z,22.83
2023-02-22T21:19:32.151Z,22.79
2023-02-22T21:21:59.308Z,22.75
2023-02-22T21:24:26.170Z,22.72
2023-02-22T21:26:52.566Z,22.69
2023-02-22T21:29:19.126Z,22.66
2023-02-22T21:31:45.692Z,22.61
2023-02-22T21:34:12.701Z,22.59
2023-02-22T21:36:39.184Z,22.56
2023-02-22T21:39:18.124Z,22.53
2023-02-22T21:41:45.282Z,22.50
2023-02-22T21:44:11.791Z,22.47
2023-02-22T21:46:38.217Z,22.45
2023-02-22T21:49:04.663Z,22.42
2023-02-22T21:51:31.731Z,22.38
2023-02-22T21:54:01.036Z,22.35
2023-02-22T21:56:27.687Z,22.32
2023-02-22T21:59:01.213Z,22.27
2023-02-22T22:01:35.625Z,22.25
2023-02-22T22:04:02.392Z,22.22
2023-02-22T22:06:29.205Z,22.18
2023-02-22T22:08:55.812Z,22.15
2023-02-22T22:11:22.446Z,22.12
2023-02-22T22:13:49.358Z,22.09
2023-02-22T22:16:16.704Z,22.06
2023-02-22T22:18:43.398Z,22.03
2023-02-22T22:21:10.838Z,22.01
2023-02-22T22:23:39.122Z,21.96
2023-02-22T22:26:10.944Z,21.95
2023-02-22T22:28:40.938Z,21.93
2023-02-22T22:31:07.508Z,21.90
2023-02-22T22:33:34.221Z,21.87
2023-02-22T22:36:00.738Z,21.85
2023-02-22T22:38:27.304Z,21.83
2023-02-22T22:40:53.745Z,21.81
2023-02-22T22:43:20.236Z,21.78
2023-02-22T22:45:47.389Z,21.76
2023-02-22T22:48:15.039Z,21.73
2023-02-22T22:50:45.517Z,21.71
2023-02-22T22:53:16.416Z,21.68
2023-02-22T22:55:43.025Z,21.65
2023-02-22T22:58:13.252Z,21.64
2023-02-22T23:00:41.225Z,21.62
2023-02-22T23:03:09.436Z,21.59
2023-02-22T23:05:40.138Z,21.58
2023-02-22T23:08:10.489Z,21.55
2023-02-22T23:10:39.300Z,21.54
2023-02-22T23:13:12.629Z,21.52
2023-02-22T23:15:42.983Z,21.50
2023-02-22T23:18:09.671Z,21.49
2023-02-22T23:20:39.045Z,21.46
2023-02-22T23:23:06.108Z,21.44
2023-02-22T23:25:38.892Z,21.42
2023-02-22T23:28:14.576Z,21.40
2023-02-22T23:30:41.611Z,21.38
2023-02-22T23:33:08.126Z,21.36
2023-02-22T23:35:34.579Z,21.35
2023-02-22T23:38:00.991Z,21.32
2023-02-22T23:40:27.400Z,21.31
2023-02-22T23:42:56.651Z,21.29
2023-02-22T23:45:25.960Z,21.28
2023-02-22T23:47:54.777Z,21.25
2023-02-22T23:50:24.680Z,21.25
2023-02-22T23:52:56.940Z,21.22
2023-02-22T23:55:27.027Z,21.21
2023-02-22T23:57:59.179Z,21.19
